createdAt,value
2023-02-08T00:04:21.763Z,18.4
2023-02-08T00:09:58.839Z,18.4
2023-02-08T00:15:35.448Z,18.4
2023-02-08T00:21:13.923Z,18.4
2023-02-08T00:26:52.913Z,18.3
2023-02-08T00:32:31.001Z,18.3
2023-02-08T00:37:52.932Z,18.3
2023-02-08T00:43:30.886Z,18.3
2023-02-08T00:49:08.648Z,18.3
2023-02-08T00:54:45.926Z,18.2
2023-02-08T01:00:21.903Z,18.2
2023-02-08T01:06:15.175Z,18.2
2023-02-08T01:11:52.988Z,18.2
2023-02-08T01:17:14.033Z,18.1
2023-02-08T01:22:20.569Z,18.1
2023-02-08T01:27:58.890Z,18.1
2023-02-08T01:33:20.809Z,18.1
2023-02-08T01:38:42.110Z,18.1
2023-02-08T01:44:04.790Z,18.1
2023-02-08T01:49:42.574Z,18.1
2023-02-08T01:55:18.743Z,18.1
2023-02-08T02:00:57.262Z,18.1
2023-02-08T02:06:33.874Z,18
2023-02-08T02:12:10.566Z,18
2023-02-08T02:17:48.370Z,18.1
2023-02-08T02:23:28.373Z,18.1
2023-02-08T02:29:04.574Z,18.2
2023-02-08T02:34:43.026Z,18.3
2023-02-08T02:40:19.307Z,18.3
2023-02-08T02:45:55.789Z,18.4
2023-02-08T02:51:33.487Z,18.5
2023-02-08T02:56:54.891Z,18.6
2023-02-08T03:07:39.472Z,18.8
2023-02-08T03:13:15.678Z,18.9
2023-02-08T03:18:51.652Z,19.1
2023-02-08T03:24:29.025Z,19.2
2023-02-08T03:29:49.917Z,19.3
2023-02-08T03:35:11.995Z,19.4
2023-02-08T03:40:50.438Z,19.6
2023-02-08T03:46:26.960Z,19.7
2023-02-08T03:52:03.896Z,19.7
2023-02-08T03:57:41.208Z,19.8
2023-02-08T04:03:03.083Z,19.8
2023-02-08T04:08:24.144Z,19.9
2023-02-08T04:14:01.582Z,19.9
2023-02-08T04:19:37.600Z,19.9
2023-02-08T04:25:14.190Z,19.9
2023-02-08T04:30:52.241Z,19.9
2023-02-08T04:36:30.034Z,20
2023-02-08T04:42:07.091Z,20
2023-02-08T04:47:44.899Z,20
2023-02-08T04:53:23.308Z,20.1
2023-02-08T04:59:01.138Z,20.1
2023-02-08T05:04:38.382Z,20.1
2023-02-08T05:10:15.249Z,20.1
2023-02-08T05:15:54.947Z,20.1
2023-02-08T05:21:33.052Z,20.2
2023-02-08T05:27:10.984Z,20.2
2023-02-08T05:32:49.651Z,20.2
2023-02-08T05:38:27.716Z,20.2
2023-02-08T05:44:04.701Z,20.2
2023-02-08T05:49:44.469Z,20.3
2023-02-08T05:54:51.642Z,20.2
2023-02-08T06:00:28.610Z,20.2
2023-02-08T06:05:50.785Z,20.2
2023-02-08T06:11:13.467Z,20.2
2023-02-08T06:16:53.149Z,20.1
2023-02-08T06:22:31.802Z,20.1
2023-02-08T06:28:07.665Z,20.1
2023-02-08T06:33:48.760Z,20.1
2023-02-08T06:39:26.913Z,20.1
2023-02-08T06:45:13.577Z,20.1
2023-02-08T06:50:50.999Z,20.1
2023-02-08T06:56:28.080Z,20.1
2023-02-08T07:02:05.611Z,20.1
2023-02-08T07:07:50.418Z,20
2023-02-08T07:13:26.907Z,20.1
2023-02-08T07:19:04.797Z,20.1
2023-02-08T07:24:25.836Z,20
2023-02-08T07:30:02.455Z,20
2023-02-08T07:35:42.707Z,20
2023-02-08T07:41:18.142Z,20
2023-02-08T07:46:55.225Z,20
2023-02-08T07:52:31.905Z,19.9
2023-02-08T07:58:10.528Z,19.9
2023-02-08T08:03:56.643Z,20
2023-02-08T08:09:36.705Z,19.9
2023-02-08T08:14:58.054Z,19.9
2023-02-08T08:20:37.605Z,19.9
2023-02-08T08:26:13.876Z,19.9
2023-02-08T08:31:53.675Z,16.7
2023-02-08T08:37:32.467Z,52.5
2023-02-08T08:43:10.696Z,47.8
2023-02-08T08:48:32.030Z,42.8
2023-02-08T08:54:09.688Z,42.9
2023-02-08T09:05:07.786Z,54.8
2023-02-08T09:10:45.098Z,48.1
2023-02-08T09:16:24.480Z,46.6
2023-02-08T09:22:01.880Z,59.6
2023-02-08T09:27:39.683Z,56.1
2023-02-08T09:33:03.783Z,49.9
2023-02-08T09:38:40.420Z,44.6
2023-02-08T09:44:01.621Z,40.5
2023-02-08T09:49:50.088Z,37.1
2023-02-08T09:55:26.393Z,34.6
2023-02-08T10:00:50.733Z,32.5
2023-02-08T10:06:29.086Z,56.2
2023-02-08T10:12:00.174Z,60.1
2023-02-08T10:17:35.496Z,55.4
2023-02-08T10:23:13.501Z,56.6
2023-02-08T10:28:35.524Z,57.6
2023-02-08T10:34:15.880Z,54.1
2023-02-08T10:40:11.586Z,47.1
2023-02-08T10:46:13.152Z,42.2
2023-02-08T10:51:56.195Z,38.4
2023-02-08T10:57:39.605Z,35.7
2023-02-08T11:03:12.062Z,33.6
2023-02-08T11:08:56.992Z,31.9
2023-02-08T11:14:46.553Z,30.4
2023-02-08T11:20:30.685Z,57.9
2023-02-08T11:26:14.106Z,54.9
2023-02-08T11:31:58.594Z,47.3
2023-02-08T11:37:41.567Z,42.4
2023-02-08T11:43:24.666Z,38.7
2023-02-08T11:49:07.274Z,35.8
2023-02-08T11:54:30.588Z,33.7
2023-02-08T12:00:07.421Z,41.8
2023-02-08T12:04:59.218Z,58.9
2023-02-08T12:10:37.153Z,50.7
2023-02-08T12:16:32.583Z,45.1
2023-02-08T12:22:10.863Z,40.6
2023-02-08T12:27:50.301Z,37.4
2023-02-08T12:33:42.769Z,34.8
2023-02-08T12:39:55.246Z,32.7
2023-02-08T12:45:34.233Z,31.1
2023-02-08T12:51:26.392Z,29.8
2023-02-08T12:57:01.461Z,28.7
2023-02-08T13:02:37.633Z,27.7
2023-02-08T13:08:22.548Z,26.9
2023-02-08T13:14:10.814Z,26.3
2023-02-08T13:20:15.871Z,25.7
2023-02-08T13:26:15.710Z,25.1
2023-02-08T13:31:55.874Z,24.7
2023-02-08T13:37:57.373Z,24.3
2023-02-08T13:43:50.780Z,23.9
2023-02-08T13:49:29.465Z,23.6
2023-02-08T13:55:05.977Z,23.3
2023-02-08T14:00:27.626Z,23.1
2023-02-08T14:06:05.538Z,22.9
2023-02-08T14:11:44.086Z,22.6
2023-02-08T14:17:07.501Z,22.5
2023-02-08T14:22:46.301Z,22.3
2023-02-08T14:28:22.863Z,22.2
2023-02-08T14:33:59.354Z,22.1
2023-02-08T14:39:46.194Z,21.9
2023-02-08T14:45:08.298Z,21.8
2023-02-08T14:50:48.435Z,21.8
2023-02-08T14:56:09.857Z,21.6
2023-02-08T15:01:31.766Z,21.5
2023-02-08T15:07:13.846Z,21.4
2023-02-08T15:12:54.166Z,21.3
2023-02-08T15:18:35.506Z,21.3
2023-02-08T15:24:13.075Z,21.2
2023-02-08T15:30:00.770Z,21.1
2023-02-08T15:35:38.717Z,20.9
2023-02-08T15:41:16.263Z,20.8
2023-02-08T15:46:54.133Z,20.8
2023-02-08T15:52:31.168Z,20.7
2023-02-08T15:58:03.955Z,20.6
2023-02-08T16:03:26.729Z,20.6
2023-02-08T16:08:48.816Z,20.5
2023-02-08T16:14:10.401Z,20.4
2023-02-08T16:20:08.351Z,20.4
2023-02-08T16:25:34.362Z,20.4
2023-02-08T16:31:12.597Z,20.3
2023-02-08T16:36:50.946Z,20.3
2023-02-08T16:42:44.838Z,20.2
2023-02-08T16:48:34.864Z,20.1
2023-02-08T16:54:17.637Z,20.1
2023-02-08T16:59:38.525Z,20.1
2023-02-08T17:05:20.131Z,20
2023-02-08T17:10:57.091Z,19.9
2023-02-08T17:16:45.913Z,19.9
2023-02-08T17:22:24.194Z,19.9
2023-02-08T17:28:04.354Z,19.9
2023-02-08T17:33:27.757Z,19.8
2023-02-08T17:39:05.097Z,19.8
2023-02-08T17:44:42.510Z,19.8
2023-02-08T17:50:04.392Z,19.7
2023-02-08T18:01:10.811Z,19.6
2023-02-08T18:06:49.520Z,19.6
2023-02-08T18:12:27.555Z,19.6
2023-02-08T18:18:06.072Z,19.5
2023-02-08T18:23:43.820Z,19.5
2023-02-08T18:29:06.030Z,19.4
2023-02-08T18:34:45.017Z,19.4
2023-02-08T18:40:25.704Z,19.4
2023-02-08T18:46:03.538Z,19.4
2023-02-08T18:57:36.477Z,19.3
2023-02-08T19:03:00.129Z,19.3
2023-02-08T19:08:37.823Z,19.3
2023-02-08T19:14:15.928Z,19.3
2023-02-08T19:19:53.141Z,19.2
2023-02-08T19:25:31.422Z,19.2
2023-02-08T19:30:53.198Z,19.2
2023-02-08T19:36:31.446Z,19.1
2023-02-08T19:42:09.026Z,19.1
2023-02-08T19:48:06.819Z,19.1
2023-02-08T19:53:44.423Z,19.1
2023-02-08T19:58:50.627Z,19.1
2023-02-08T20:04:44.901Z,19
2023-02-08T20:10:22.514Z,19
2023-02-08T20:16:12.162Z,19
2023-02-08T20:21:52.972Z,19
2023-02-08T20:27:37.965Z,18.9
2023-02-08T20:33:16.305Z,18.9
2023-02-08T20:39:09.708Z,18.9
2023-02-08T20:44:47.020Z,18.9
2023-02-08T20:50:40.500Z,18.9
2023-02-08T20:56:17.931Z,18.9
2023-02-08T21:02:05.213Z,18.9
2023-02-08T21:07:27.398Z,18.9
2023-02-08T21:13:06.461Z,18.9
2023-02-08T21:18:46.895Z,18.9
2023-02-08T21:24:24.535Z,18.9
2023-02-08T21:30:02.475Z,18.9
2023-02-08T21:35:42.852Z,18.9
2023-02-08T21:41:20.100Z,18.9
2023-02-08T21:46:58.122Z,18.9
2023-02-08T21:52:19.753Z,18.9
2023-02-08T21:57:59.428Z,18.9
2023-02-08T22:03:37.172Z,18.9
2023-02-08T22:08:58.380Z,18.9
2023-02-08T22:14:39.173Z,18.9
2023-02-08T22:20:17.017Z,18.9
2023-02-08T22:25:53.626Z,18.9
2023-02-08T22:31:33.418Z,18.9
2023-02-08T22:36:55.618Z,18.9
2023-02-08T22:42:32.487Z,18.9
2023-02-08T22:48:09.914Z,18.9
2023-02-08T22:53:47.391Z,18.9
2023-02-08T22:59:24.159Z,18.9
2023-02-08T23:05:01.755Z,18.9
2023-02-08T23:10:38.728Z,18.9
2023-02-08T23:16:15.714Z,18.9
2023-02-08T23:21:56.288Z,18.9
2023-02-08T23:27:33.421Z,18.9
2023-02-08T23:33:10.523Z,18.9
2023-02-08T23:38:31.913Z,18.9
2023-02-08T23:44:10.003Z,18.8
2023-02-08T23:49:32.010Z,18.8
2023-02-08T23:55:09.848Z,18.8
